createdAt,value
2018-06-20T00:01:48.203Z,18.70
2018-06-20T00:04:27.893Z,18.70
2018-06-20T00:07:05.781Z,18.60
2018-06-20T00:09:52.013Z,18.70
2018-06-20T00:12:29.764Z,18.60
2018-06-20T00:15:04.687Z,18.60
2018-06-20T00:17:47.377Z,18.70
2018-06-20T00:20:23.803Z,18.60
2018-06-20T00:23:02.111Z,18.60
2018-06-20T00:25:41.391Z,18.60
2018-06-20T00:28:23.925Z,18.60
2018-06-20T00:31:14.227Z,18.60
2018-06-20T00:33:58.294Z,18.60
2018-06-20T00:36:45.992Z,18.50
2018-06-20T00:39:25.178Z,18.60
2018-06-20T00:42:04.250Z,18.60
2018-06-20T00:44:41.451Z,18.60
2018-06-20T00:47:20.787Z,18.50
2018-06-20T00:49:56.916Z,18.50
2018-06-20T00:52:37.429Z,18.50
2018-06-20T00:55:14.597Z,18.50
2018-06-20T00:57:53.223Z,18.50
2018-06-20T01:00:35.456Z,18.50
2018-06-20T01:03:10.541Z,18.50
2018-06-20T01:05:51.029Z,18.50
2018-06-20T01:08:27.199Z,18.50
2018-06-20T01:11:03.292Z,18.50
2018-06-20T01:13:39.776Z,18.50
2018-06-20T01:16:16.768Z,18.50
2018-06-20T01:18:57.732Z,18.50
2018-06-20T01:21:35.327Z,18.50
2018-06-20T01:24:14.485Z,18.50
2018-06-20T01:26:49.506Z,18.50
2018-06-20T01:32:32.320Z,18.50
2018-06-20T01:35:13.122Z,18.50
2018-06-20T01:37:49.811Z,18.50
2018-06-20T01:40:26.148Z,18.40
2018-06-20T01:43:02.554Z,18.40
2018-06-20T01:45:38.711Z,18.40
2018-06-20T01:48:20.966Z,18.40
2018-06-20T01:50:57.789Z,18.40
2018-06-20T01:53:34.668Z,18.40
2018-06-20T01:56:14.384Z,18.40
2018-06-20T01:58:52.225Z,18.40
2018-06-20T02:01:28.691Z,18.40
2018-06-20T02:04:04.391Z,18.40
2018-06-20T02:06:39.018Z,18.30
2018-06-20T02:09:18.400Z,18.30
2018-06-20T02:11:58.798Z,18.30
2018-06-20T02:14:37.674Z,18.30
2018-06-20T02:20:33.733Z,18.30
2018-06-20T02:23:09.945Z,18.30
2018-06-20T02:25:45.381Z,18.30
2018-06-20T02:28:20.324Z,18.30
2018-06-20T02:30:56.227Z,18.30
2018-06-20T02:33:33.209Z,18.30
2018-06-20T02:36:15.824Z,18.30
2018-06-20T02:38:50.741Z,18.30
2018-06-20T02:41:28.060Z,18.30
2018-06-20T02:44:02.995Z,18.30
2018-06-20T02:46:38.837Z,18.30
2018-06-20T02:49:13.968Z,18.30
2018-06-20T02:51:49.223Z,18.30
2018-06-20T02:54:24.340Z,18.20
2018-06-20T02:57:00.575Z,18.20
2018-06-20T02:59:35.225Z,18.20
2018-06-20T03:02:09.964Z,18.30
2018-06-20T03:04:44.795Z,18.30
2018-06-20T03:07:19.523Z,18.30
2018-06-20T03:10:00.560Z,18.30
2018-06-20T03:12:39.110Z,18.30
2018-06-20T03:15:13.556Z,18.20
2018-06-20T03:17:48.568Z,18.30
2018-06-20T03:20:24.236Z,18.30
2018-06-20T03:23:02.697Z,18.30
2018-06-20T03:25:37.155Z,18.30
2018-06-20T03:28:13.634Z,18.30
2018-06-20T03:30:52.115Z,18.30
2018-06-20T03:33:27.488Z,18.30
2018-06-20T03:36:12.259Z,18.30
2018-06-20T03:38:47.327Z,18.30
2018-06-20T03:41:23.868Z,18.30
2018-06-20T03:44:01.048Z,18.40
2018-06-20T03:46:39.772Z,18.40
2018-06-20T03:49:15.200Z,18.40
2018-06-20T03:51:55.496Z,18.40
2018-06-20T03:54:30.527Z,18.40
2018-06-20T03:57:13.037Z,18.50
2018-06-20T03:59:49.349Z,18.50
2018-06-20T04:05:45.839Z,18.60
2018-06-20T04:08:23.884Z,18.60
2018-06-20T04:11:06.345Z,18.60
2018-06-20T04:13:50.309Z,18.70
2018-06-20T04:16:27.931Z,18.80
2018-06-20T04:19:02.838Z,18.80
2018-06-20T04:21:40.849Z,18.90
2018-06-20T04:24:16.395Z,18.90
2018-06-20T04:26:54.500Z,19.00
2018-06-20T04:29:29.246Z,19.00
2018-06-20T04:32:11.009Z,19.10
2018-06-20T04:34:54.405Z,19.00
2018-06-20T04:37:28.799Z,19.00
2018-06-20T04:40:03.256Z,18.80
2018-06-20T04:42:37.504Z,18.80
2018-06-20T04:45:11.884Z,18.70
2018-06-20T04:47:46.811Z,18.60
2018-06-20T04:50:21.420Z,18.60
2018-06-20T04:52:56.700Z,18.60
2018-06-20T04:55:31.859Z,18.70
2018-06-20T04:58:06.348Z,18.70
2018-06-20T05:00:40.735Z,18.70
2018-06-20T05:03:15.336Z,18.80
2018-06-20T05:05:50.780Z,18.80
2018-06-20T05:08:25.199Z,19.00
2018-06-20T05:11:00.067Z,19.30
2018-06-20T05:13:34.400Z,19.30
2018-06-20T05:16:12.488Z,19.30
2018-06-20T05:18:46.900Z,19.30
2018-06-20T05:21:21.457Z,19.30
2018-06-20T05:23:56.193Z,19.30
2018-06-20T05:26:32.596Z,19.40
2018-06-20T05:29:07.618Z,19.40
2018-06-20T05:31:42.640Z,19.40
2018-06-20T05:34:16.774Z,19.50
2018-06-20T05:36:52.560Z,19.60
2018-06-20T05:39:29.511Z,19.60
2018-06-20T05:42:08.354Z,19.70
2018-06-20T05:44:47.679Z,19.70
2018-06-20T05:47:26.859Z,19.90
2018-06-20T05:50:01.659Z,20.00
2018-06-20T05:52:46.791Z,20.10
2018-06-20T05:55:22.172Z,20.20
2018-06-20T05:58:07.982Z,20.20
2018-06-20T06:00:45.563Z,20.20
2018-06-20T06:03:19.880Z,20.30
2018-06-20T06:06:07.620Z,20.40
2018-06-20T06:08:42.946Z,20.50
2018-06-20T06:11:17.380Z,20.60
2018-06-20T06:13:52.418Z,20.70
2018-06-20T06:16:30.081Z,20.80
2018-06-20T06:19:09.094Z,20.90
2018-06-20T06:24:27.117Z,20.80
2018-06-20T06:27:02.745Z,21.00
2018-06-20T06:29:38.703Z,21.10
2018-06-20T06:32:16.151Z,21.10
2018-06-20T06:34:53.495Z,21.10
2018-06-20T06:40:08.368Z,21.00
2018-06-20T06:42:47.011Z,21.00
2018-06-20T06:45:22.428Z,21.20
2018-06-20T06:48:02.580Z,21.40
2018-06-20T06:50:37.547Z,21.80
2018-06-20T06:53:11.931Z,22.40
2018-06-20T06:55:47.672Z,22.50
2018-06-20T06:58:25.046Z,22.50
2018-06-20T07:01:01.748Z,22.50
2018-06-20T07:03:36.065Z,22.70
2018-06-20T07:06:11.054Z,23.00
2018-06-20T07:08:49.005Z,23.20
2018-06-20T07:11:23.829Z,23.00
2018-06-20T07:13:59.557Z,22.50
2018-06-20T07:16:36.709Z,22.50
2018-06-20T07:19:11.422Z,22.20
2018-06-20T07:21:46.195Z,22.20
2018-06-20T07:24:20.896Z,22.10
2018-06-20T07:26:57.926Z,22.20
2018-06-20T07:29:32.218Z,22.20
2018-06-20T07:32:09.000Z,22.30
2018-06-20T07:34:44.276Z,22.30
2018-06-20T07:37:19.379Z,22.20
2018-06-20T07:39:59.097Z,22.70
2018-06-20T07:42:33.488Z,22.90
2018-06-20T07:45:09.145Z,23.00
2018-06-20T07:47:44.490Z,23.00
2018-06-20T07:50:19.248Z,23.00
2018-06-20T07:52:53.728Z,23.00
2018-06-20T07:55:28.154Z,22.90
2018-06-20T07:58:02.406Z,23.00
2018-06-20T08:00:42.781Z,23.10
2018-06-20T08:03:23.138Z,23.30
2018-06-20T08:06:10.542Z,23.40
2018-06-20T08:08:50.263Z,23.20
2018-06-20T08:12:30.910Z,23.10
2018-06-20T08:17:13.908Z,23.40
2018-06-20T08:19:51.624Z,23.40
2018-06-20T08:22:28.993Z,23.70
2018-06-20T08:25:08.975Z,23.90
2018-06-20T08:27:44.524Z,24.10
2018-06-20T08:30:20.118Z,24.10
2018-06-20T08:32:56.010Z,24.00
2018-06-20T08:35:32.249Z,23.90
2018-06-20T08:38:06.651Z,23.80
2018-06-20T08:40:41.660Z,23.90
2018-06-20T08:43:16.843Z,23.80
2018-06-20T08:45:51.646Z,23.80
2018-06-20T08:48:27.165Z,23.60
2018-06-20T08:51:06.218Z,23.50
2018-06-20T08:53:41.697Z,23.70
2018-06-20T08:56:16.262Z,23.80
2018-06-20T08:58:53.293Z,23.80
2018-06-20T09:01:27.556Z,23.80
2018-06-20T09:04:08.746Z,23.90
2018-06-20T09:06:49.117Z,24.00
2018-06-20T09:09:29.612Z,24.00
2018-06-20T09:14:54.069Z,23.70
2018-06-20T09:17:36.534Z,23.50
2018-06-20T09:20:10.924Z,23.50
2018-06-20T09:22:50.031Z,23.30
2018-06-20T09:25:26.495Z,23.40
2018-06-20T09:28:09.623Z,23.50
2018-06-20T09:30:45.988Z,23.70
2018-06-20T09:33:20.870Z,24.00
2018-06-20T09:35:55.234Z,24.30
2018-06-20T09:38:30.082Z,24.10
2018-06-20T09:41:05.401Z,24.00
2018-06-20T09:43:40.023Z,24.20
2018-06-20T09:46:14.984Z,24.00
2018-06-20T09:54:12.045Z,24.30
2018-06-20T09:56:48.164Z,24.30
2018-06-20T09:59:28.276Z,24.20
2018-06-20T10:02:08.514Z,24.40
2018-06-20T10:04:49.385Z,24.70
2018-06-20T10:10:14.700Z,24.60
2018-06-20T10:12:57.303Z,25.10
2018-06-20T10:15:33.012Z,25.30
2018-06-20T10:18:08.741Z,25.20
2018-06-20T10:20:43.772Z,24.90
2018-06-20T10:23:21.489Z,24.80
2018-06-20T10:25:56.602Z,24.40
2018-06-20T10:28:32.060Z,24.30
2018-06-20T10:31:13.718Z,24.30
2018-06-20T10:33:51.829Z,24.10
2018-06-20T10:36:26.196Z,23.80
2018-06-20T10:39:02.329Z,23.80
2018-06-20T10:41:37.790Z,23.90
2018-06-20T10:44:14.851Z,23.90
2018-06-20T10:46:57.479Z,23.90
2018-06-20T10:49:32.619Z,23.70
2018-06-20T10:52:07.006Z,24.10
2018-06-20T10:54:41.572Z,24.30
2018-06-20T10:57:21.636Z,24.70
2018-06-20T11:00:02.054Z,24.70
2018-06-20T11:02:42.338Z,24.80
2018-06-20T11:05:23.109Z,24.80
2018-06-20T11:08:03.327Z,24.90
2018-06-20T11:10:43.829Z,25.40
2018-06-20T11:13:21.108Z,25.50
2018-06-20T11:15:56.862Z,25.50
2018-06-20T11:18:34.024Z,25.70
2018-06-20T11:21:10.853Z,25.70
2018-06-20T11:23:50.772Z,26.20
2018-06-20T11:26:27.140Z,26.80
2018-06-20T11:29:03.505Z,26.90
2018-06-20T11:31:39.048Z,27.00
2018-06-20T11:34:15.795Z,27.00
2018-06-20T11:36:56.598Z,27.10
2018-06-20T11:39:31.638Z,27.00
2018-06-20T11:42:07.194Z,27.10
2018-06-20T11:44:42.327Z,27.10
2018-06-20T11:47:53.388Z,27.10
2018-06-20T11:50:29.980Z,26.60
2018-06-20T11:53:09.519Z,26.90
2018-06-20T11:55:54.683Z,27.10
2018-06-20T11:58:43.850Z,27.40
2018-06-20T12:01:31.982Z,27.20
2018-06-20T12:04:17.259Z,27.20
2018-06-20T12:06:57.423Z,27.00
2018-06-20T12:09:40.855Z,26.80
2018-06-20T12:12:25.616Z,26.50
2018-06-20T12:17:54.111Z,27.30
2018-06-20T12:20:37.859Z,28.10
2018-06-20T12:23:23.108Z,29.00
2018-06-20T12:26:07.885Z,29.20
2018-06-20T12:28:50.508Z,29.20
2018-06-20T12:31:39.362Z,28.90
2018-06-20T12:34:22.283Z,29.20
2018-06-20T12:37:03.608Z,28.20
2018-06-20T12:39:41.647Z,28.90
2018-06-20T12:42:23.837Z,30.50
2018-06-20T12:45:04.622Z,31.00
2018-06-20T12:50:25.628Z,30.90
2018-06-20T12:53:00.201Z,31.30
2018-06-20T12:55:35.237Z,30.80
2018-06-20T12:58:09.583Z,30.30
2018-06-20T13:00:45.533Z,30.30
2018-06-20T13:03:20.401Z,30.40
2018-06-20T13:05:54.644Z,30.10
2018-06-20T13:08:29.881Z,30.40
2018-06-20T13:11:04.920Z,30.80
2018-06-20T13:13:40.716Z,31.70
2018-06-20T13:16:15.553Z,31.40
2018-06-20T13:18:58.423Z,30.80
2018-06-20T13:21:33.112Z,30.80
2018-06-20T13:24:07.512Z,30.60
2018-06-20T13:26:41.854Z,31.60
2018-06-20T13:29:17.260Z,31.90
2018-06-20T13:31:57.752Z,32.50
2018-06-20T13:34:37.819Z,32.90
2018-06-20T13:37:19.184Z,32.60
2018-06-20T13:42:56.098Z,32.80
2018-06-20T13:45:36.682Z,33.70
2018-06-20T13:48:17.656Z,32.10
2018-06-20T13:50:57.297Z,31.80
2018-06-20T13:53:40.006Z,33.00
2018-06-20T13:56:15.065Z,34.70
2018-06-20T13:58:51.701Z,35.10
2018-06-20T14:01:26.993Z,35.00
2018-06-20T14:04:04.215Z,35.70
2018-06-20T14:06:42.755Z,35.50
2018-06-20T14:09:18.109Z,34.10
2018-06-20T14:11:54.378Z,32.60
2018-06-20T14:14:34.474Z,32.40
2018-06-20T14:17:10.537Z,33.10
2018-06-20T14:19:53.338Z,33.40
2018-06-20T14:22:29.654Z,33.70
2018-06-20T14:25:06.763Z,34.10
2018-06-20T14:27:46.236Z,33.00
2018-06-20T14:30:26.301Z,32.00
2018-06-20T14:33:06.025Z,32.40
2018-06-20T14:35:48.147Z,34.40
2018-06-20T14:38:29.662Z,36.60
2018-06-20T14:43:13.603Z,37.80
2018-06-20T14:45:59.792Z,36.20
2018-06-20T14:48:42.488Z,36.00
2018-06-20T14:51:19.376Z,36.50
2018-06-20T14:53:58.064Z,37.10
2018-06-20T14:56:39.077Z,37.20
2018-06-20T14:59:21.589Z,36.30
2018-06-20T15:01:59.700Z,34.20
2018-06-20T15:04:35.968Z,34.00
2018-06-20T15:07:11.202Z,35.70
2018-06-20T15:09:47.074Z,37.20
2018-06-20T15:12:22.105Z,36.30
2018-06-20T15:14:58.986Z,36.70
2018-06-20T15:17:35.652Z,35.60
2018-06-20T15:20:13.014Z,35.00
2018-06-20T15:22:52.799Z,35.70
2018-06-20T15:25:33.259Z,36.70
2018-06-20T15:28:14.437Z,36.50
2018-06-20T15:30:55.620Z,36.00
2018-06-20T15:33:37.037Z,36.80
2018-06-20T15:37:18.233Z,37.00
2018-06-20T15:39:57.601Z,36.90
2018-06-20T15:42:37.994Z,38.10
2018-06-20T15:45:22.000Z,37.20
2018-06-20T15:50:39.049Z,38.80
2018-06-20T15:53:14.689Z,38.90
2018-06-20T15:55:51.977Z,39.40
2018-06-20T15:58:28.984Z,38.10
2018-06-20T16:01:05.232Z,37.20
2018-06-20T16:03:53.188Z,36.80
2018-06-20T16:06:29.830Z,38.20
2018-06-20T16:09:13.653Z,39.80
2018-06-20T16:11:49.041Z,39.20
2018-06-20T16:14:28.478Z,38.10
2018-06-20T16:17:02.961Z,38.00
2018-06-20T16:19:42.752Z,38.50
2018-06-20T16:25:03.363Z,39.40
2018-06-20T16:27:43.663Z,39.70
2018-06-20T16:30:28.812Z,40.40
2018-06-20T16:33:08.310Z,38.80
2018-06-20T16:35:42.657Z,38.30
2018-06-20T16:38:17.136Z,39.80
2018-06-20T16:40:51.348Z,40.90
2018-06-20T16:43:25.909Z,41.60
2018-06-20T16:46:00.241Z,40.10
2018-06-20T16:48:34.488Z,39.10
2018-06-20T16:51:08.774Z,37.60
2018-06-20T16:53:43.119Z,37.40
2018-06-20T16:56:17.553Z,37.90
2018-06-20T16:58:51.810Z,38.00
2018-06-20T17:01:31.960Z,37.60
2018-06-20T17:04:07.097Z,35.70
2018-06-20T17:06:41.599Z,35.00
2018-06-20T17:09:16.053Z,34.60
2018-06-20T17:11:56.002Z,35.10
2018-06-20T17:14:36.056Z,35.70
2018-06-20T17:17:16.254Z,36.20
2018-06-20T17:19:56.134Z,35.80
2018-06-20T17:22:36.579Z,35.10
2018-06-20T17:25:43.640Z,34.70
2018-06-20T17:28:17.974Z,36.00
2018-06-20T17:30:52.205Z,36.00
2018-06-20T17:33:26.372Z,36.00
2018-06-20T17:36:00.715Z,36.30
2018-06-20T17:38:34.934Z,36.10
2018-06-20T17:41:09.253Z,36.90
2018-06-20T17:43:44.388Z,37.20
2018-06-20T17:46:19.774Z,35.10
2018-06-20T17:48:54.563Z,33.70
2018-06-20T17:54:03.077Z,34.40
2018-06-20T17:56:40.538Z,34.80
2018-06-20T18:01:49.417Z,34.80
2018-06-20T18:04:29.004Z,35.80
2018-06-20T18:07:10.522Z,34.40
2018-06-20T18:09:50.288Z,34.40
2018-06-20T18:12:30.733Z,34.00
2018-06-20T18:15:12.284Z,34.10
2018-06-20T18:17:46.960Z,33.60
2018-06-20T18:20:22.071Z,33.50
2018-06-20T18:22:56.615Z,33.40
2018-06-20T18:25:31.201Z,33.60
2018-06-20T18:28:05.966Z,33.60
2018-06-20T18:30:41.215Z,32.80
2018-06-20T18:33:15.664Z,32.80
2018-06-20T18:35:51.208Z,33.20
2018-06-20T18:38:26.486Z,32.70
2018-06-20T18:41:01.408Z,32.10
2018-06-20T18:43:36.174Z,32.10
2018-06-20T18:46:10.856Z,31.10
2018-06-20T18:48:45.483Z,30.30
2018-06-20T18:51:19.950Z,29.70
2018-06-20T18:56:31.913Z,28.40
2018-06-20T18:59:11.847Z,27.80
2018-06-20T19:01:52.704Z,27.50
2018-06-20T19:04:32.761Z,27.20
2018-06-20T19:09:47.172Z,26.60
2018-06-20T19:12:21.472Z,26.40
2018-06-20T19:15:01.876Z,26.30
2018-06-20T19:17:36.361Z,26.20
2018-06-20T19:20:11.132Z,26.10
2018-06-20T19:22:45.808Z,26.00
2018-06-20T19:25:20.437Z,25.90
2018-06-20T19:27:54.752Z,25.80
2018-06-20T19:30:29.233Z,25.70
2018-06-20T19:33:03.500Z,25.60
2018-06-20T19:35:38.135Z,25.50
2018-06-20T19:38:12.641Z,25.40
2018-06-20T19:40:47.309Z,25.20
2018-06-20T19:43:21.718Z,25.10
2018-06-20T19:45:58.374Z,24.90
2018-06-20T19:48:33.602Z,24.80
2018-06-20T19:51:07.984Z,24.70
2018-06-20T19:53:44.322Z,24.60
2018-06-20T19:56:18.768Z,24.50
2018-06-20T19:58:54.699Z,24.40
2018-06-20T20:01:29.645Z,24.30
2018-06-20T20:04:06.057Z,24.20
2018-06-20T20:06:41.624Z,24.00
2018-06-20T20:09:16.253Z,23.90
2018-06-20T20:11:50.450Z,23.90
2018-06-20T20:14:27.025Z,23.80
2018-06-20T20:17:01.354Z,23.70
2018-06-20T20:19:36.522Z,23.70
2018-06-20T20:22:13.100Z,23.70
2018-06-20T20:24:47.361Z,23.60
2018-06-20T20:27:21.695Z,23.50
2018-06-20T20:29:56.746Z,23.50
2018-06-20T20:32:31.144Z,23.50
2018-06-20T20:35:05.685Z,23.40
2018-06-20T20:37:40.209Z,23.30
2018-06-20T20:40:14.862Z,23.20
2018-06-20T20:42:49.245Z,23.10
2018-06-20T20:45:23.796Z,22.90
2018-06-20T20:47:58.485Z,22.90
2018-06-20T20:50:33.856Z,22.90
2018-06-20T20:53:12.731Z,22.80
2018-06-20T20:55:48.009Z,22.80
2018-06-20T20:58:24.386Z,22.70
2018-06-20T21:01:01.026Z,22.70
2018-06-20T21:03:36.638Z,22.60
2018-06-20T21:06:12.309Z,22.50
2018-06-20T21:08:47.127Z,22.40
2018-06-20T21:11:22.829Z,22.40
2018-06-20T21:13:57.632Z,22.30
2018-06-20T21:16:32.485Z,22.20
2018-06-20T21:19:09.525Z,22.20
2018-06-20T21:21:44.912Z,22.10
2018-06-20T21:24:19.456Z,22.10
2018-06-20T21:26:53.671Z,22.00
2018-06-20T21:29:28.592Z,21.90
2018-06-20T21:32:04.244Z,21.80
2018-06-20T21:34:39.528Z,21.80
2018-06-20T21:37:16.045Z,21.80
2018-06-20T21:39:51.128Z,21.80
2018-06-20T21:42:25.682Z,21.70
2018-06-20T21:45:00.128Z,21.70
2018-06-20T21:47:35.879Z,21.70
2018-06-20T21:50:11.681Z,21.50
2018-06-20T21:52:46.100Z,21.40
2018-06-20T21:55:22.233Z,21.40
2018-06-20T21:57:57.277Z,21.40
2018-06-20T22:00:33.207Z,21.40
2018-06-20T22:03:07.695Z,21.30
2018-06-20T22:05:48.276Z,21.30
2018-06-20T22:08:24.305Z,21.20
2018-06-20T22:10:58.792Z,21.10
2018-06-20T22:13:34.453Z,21.00
2018-06-20T22:16:09.590Z,20.90
2018-06-20T22:18:44.329Z,20.70
2018-06-20T22:21:21.001Z,20.60
2018-06-20T22:23:56.607Z,20.60
2018-06-20T22:26:32.153Z,20.50
2018-06-20T22:29:09.692Z,20.40
2018-06-20T22:31:51.897Z,20.40
2018-06-20T22:34:27.898Z,20.40
2018-06-20T22:37:08.692Z,20.30
2018-06-20T22:39:44.276Z,20.30
2018-06-20T22:42:26.140Z,20.30
2018-06-20T22:45:00.557Z,20.20
2018-06-20T22:47:35.686Z,20.10
2018-06-20T22:50:10.430Z,20.00
2018-06-20T22:52:44.842Z,19.90
2018-06-20T22:55:19.157Z,19.70
2018-06-20T22:57:54.716Z,19.70
2018-06-20T23:00:29.326Z,19.60
2018-06-20T23:03:03.856Z,19.50
2018-06-20T23:05:38.386Z,19.50
2018-06-20T23:08:12.720Z,19.40
2018-06-20T23:13:21.647Z,19.20
2018-06-20T23:15:56.075Z,19.10
2018-06-20T23:18:30.464Z,19.00
2018-06-20T23:21:06.456Z,19.00
2018-06-20T23:23:41.800Z,18.90
2018-06-20T23:26:16.219Z,18.80
2018-06-20T23:28:50.539Z,18.70
2018-06-20T23:31:25.143Z,18.60
2018-06-20T23:33:59.603Z,18.50
2018-06-20T23:36:33.888Z,18.40
2018-06-20T23:39:10.190Z,18.40
2018-06-20T23:41:44.815Z,18.40
2018-06-20T23:44:19.148Z,18.40
2018-06-20T23:46:53.540Z,18.40
2018-06-20T23:49:27.966Z,18.40
2018-06-20T23:52:02.632Z,18.30
2018-06-20T23:54:37.302Z,18.30
2018-06-20T23:57:11.969Z,18.30
2018-06-20T23:59:46.648Z,18.30
